createdAt,value
2019-03-09T00:00:39.996Z,73.52
2019-03-09T00:01:20.558Z,73.71
2019-03-09T00:02:01.125Z,73.42
2019-03-09T00:02:41.706Z,73.9
2019-03-09T00:03:22.404Z,73.42
2019-03-09T00:04:02.963Z,73.42
2019-03-09T00:04:43.521Z,73.61
2019-03-09T00:05:24.163Z,73.42
2019-03-09T00:06:04.755Z,73.8
2019-03-09T00:06:45.432Z,73.71
2019-03-09T00:07:26.308Z,73.99
2019-03-09T00:08:07.883Z,73.99
2019-03-09T00:08:48.495Z,73.8
2019-03-09T00:09:29.056Z,73.9
2019-03-09T00:10:09.630Z,73.8
2019-03-09T00:10:50.217Z,73.61
2019-03-09T00:11:30.770Z,73.23
2019-03-09T00:12:11.428Z,73.42
2019-03-09T00:12:51.990Z,73.8
2019-03-09T00:13:32.737Z,73.52
2019-03-09T00:14:13.311Z,73.99
2019-03-09T00:14:54.052Z,73.9
2019-03-09T00:15:34.828Z,73.9
2019-03-09T00:16:15.803Z,73.8
2019-03-09T00:16:56.815Z,73.8
2019-03-09T00:17:37.371Z,73.9
2019-03-09T00:18:18.359Z,73.42
2019-03-09T00:18:58.929Z,73.33
2019-03-09T00:19:39.494Z,73.71
2019-03-09T00:20:20.046Z,73.42
2019-03-09T00:21:00.583Z,73.61
2019-03-09T00:21:41.143Z,73.61
2019-03-09T00:22:21.867Z,73.33
2019-03-09T00:23:02.447Z,73.04
2019-03-09T00:23:43.023Z,73.04
2019-03-09T00:24:23.701Z,73.14
2019-03-09T00:25:04.173Z,73.23
2019-03-09T00:25:44.730Z,73.8
2019-03-09T00:26:25.280Z,73.71
2019-03-09T00:27:05.862Z,73.8
2019-03-09T00:27:46.417Z,73.71
2019-03-09T00:28:27.352Z,73.52
2019-03-09T00:29:08.003Z,73.71
2019-03-09T00:29:48.567Z,73.52
2019-03-09T00:30:29.122Z,73.71
2019-03-09T00:31:10.320Z,73.14
2019-03-09T00:31:50.872Z,73.42
2019-03-09T00:32:31.477Z,73.23
2019-03-09T00:33:12.079Z,73.23
2019-03-09T00:33:52.753Z,73.04
2019-03-09T00:34:33.310Z,73.23
2019-03-09T00:35:14.079Z,73.33
2019-03-09T00:35:54.659Z,73.42
2019-03-09T00:36:35.355Z,73.23
2019-03-09T00:37:16.154Z,73.33
2019-03-09T00:37:57.135Z,73.33
2019-03-09T00:38:37.691Z,73.33
2019-03-09T00:39:18.411Z,73.71
2019-03-09T00:39:58.965Z,73.23
2019-03-09T00:40:40.813Z,73.42
2019-03-09T00:41:21.418Z,73.52
2019-03-09T00:42:02.309Z,73.33
2019-03-09T00:42:42.911Z,73.9
2019-03-09T00:43:23.542Z,73.23
2019-03-09T00:44:04.091Z,73.23
2019-03-09T00:44:45.338Z,73.33
2019-03-09T00:45:26.790Z,73.61
2019-03-09T00:46:07.157Z,73.61
2019-03-09T00:46:48.655Z,73.61
2019-03-09T00:47:29.232Z,73.33
2019-03-09T00:48:09.937Z,73.33
2019-03-09T00:48:50.457Z,73.61
2019-03-09T00:49:31.028Z,73.52
2019-03-09T00:50:11.592Z,73.61
2019-03-09T00:50:52.368Z,73.52
2019-03-09T00:51:32.991Z,73.52
2019-03-09T00:52:13.689Z,73.8
2019-03-09T00:52:54.340Z,73.52
2019-03-09T00:53:34.939Z,73.9
2019-03-09T00:54:15.510Z,74.18
2019-03-09T00:54:57.021Z,73.8
2019-03-09T00:55:37.608Z,73.71
2019-03-09T00:56:18.204Z,73.42
2019-03-09T00:56:58.766Z,74.08
2019-03-09T00:57:39.657Z,73.99
2019-03-09T00:58:20.207Z,74.47
2019-03-09T00:59:01.056Z,74.27
2019-03-09T00:59:41.732Z,74.08
2019-03-09T01:00:22.310Z,74.47
2019-03-09T01:01:03.167Z,74.47
2019-03-09T01:01:43.474Z,74.33
2019-03-09T01:02:24.180Z,74.24
2019-03-09T01:03:04.759Z,74.47
2019-03-09T01:03:45.480Z,74.56
2019-03-09T01:04:26.047Z,74.27
2019-03-09T01:05:06.802Z,74.52
2019-03-09T01:05:47.287Z,74.37
2019-03-09T01:06:28.117Z,74.66
2019-03-09T01:07:08.679Z,74.47
2019-03-09T01:07:49.235Z,74.66
2019-03-09T01:08:29.812Z,74.66
2019-03-09T01:09:10.619Z,74.66
2019-03-09T01:09:51.195Z,74.47
2019-03-09T01:10:32.083Z,74.47
2019-03-09T01:11:12.747Z,74.52
2019-03-09T01:11:53.395Z,74.52
2019-03-09T01:12:34.164Z,74.56
2019-03-09T01:13:14.626Z,74.56
2019-03-09T01:13:55.205Z,74.43
2019-03-09T01:14:35.766Z,74.56
2019-03-09T01:15:16.369Z,74.75
2019-03-09T01:15:56.989Z,75.04
2019-03-09T01:16:37.511Z,74.9
2019-03-09T01:17:18.595Z,75.19
2019-03-09T01:17:59.211Z,75
2019-03-09T01:18:39.798Z,74.85
2019-03-09T01:19:20.386Z,74.94
2019-03-09T01:20:01.147Z,74.85
2019-03-09T01:20:41.688Z,75.04
2019-03-09T01:21:22.267Z,74.85
2019-03-09T01:22:02.903Z,74.85
2019-03-09T01:22:43.412Z,74.94
2019-03-09T01:23:24.037Z,74.94
2019-03-09T01:24:04.587Z,75.04
2019-03-09T01:24:45.152Z,74.85
2019-03-09T01:25:25.697Z,74.56
2019-03-09T01:26:06.299Z,74.56
2019-03-09T01:26:46.894Z,74.47
2019-03-09T01:27:27.458Z,74.94
2019-03-09T01:28:08.009Z,74.94
2019-03-09T01:28:48.551Z,74.85
2019-03-09T01:29:29.154Z,75.23
2019-03-09T01:30:09.714Z,75.04
2019-03-09T01:30:50.289Z,75.13
2019-03-09T01:31:30.852Z,74.94
2019-03-09T01:32:11.411Z,75.42
2019-03-09T01:32:51.986Z,75.57
2019-03-09T01:33:32.553Z,75.28
2019-03-09T01:34:13.128Z,75.76
2019-03-09T01:34:53.752Z,75.76
2019-03-09T01:35:34.413Z,75.89
2019-03-09T01:36:14.977Z,75.99
2019-03-09T01:36:55.534Z,75.99
2019-03-09T01:37:36.109Z,76.08
2019-03-09T01:38:16.747Z,75.79
2019-03-09T01:38:57.308Z,75.99
2019-03-09T01:39:37.882Z,76.27
2019-03-09T01:40:18.434Z,76.56
2019-03-09T01:40:59.020Z,76.46
2019-03-09T01:41:39.607Z,76.75
2019-03-09T01:42:20.197Z,76.65
2019-03-09T01:43:00.765Z,76.65
2019-03-09T01:43:41.334Z,76.84
2019-03-09T01:44:21.975Z,76.56
2019-03-09T01:45:02.556Z,76.65
2019-03-09T01:45:43.140Z,76.37
2019-03-09T01:46:23.732Z,76.93
2019-03-09T01:47:04.314Z,76.65
2019-03-09T01:47:44.874Z,76.56
2019-03-09T01:48:25.421Z,76.37
2019-03-09T01:49:05.987Z,76.46
2019-03-09T01:49:46.549Z,76.75
2019-03-09T01:50:27.096Z,76.65
2019-03-09T01:51:07.664Z,76.84
2019-03-09T01:51:48.235Z,77.22
2019-03-09T01:52:28.808Z,77.12
2019-03-09T01:53:09.406Z,77.22
2019-03-09T01:53:49.971Z,77.22
2019-03-09T01:54:30.539Z,77.12
2019-03-09T01:55:11.137Z,77.03
2019-03-09T01:55:51.704Z,76.93
2019-03-09T01:56:32.260Z,76.84
2019-03-09T01:57:12.872Z,77.6
2019-03-09T01:57:53.403Z,77.31
2019-03-09T01:58:33.943Z,77.03
2019-03-09T01:59:14.496Z,77.31
2019-03-09T01:59:55.106Z,76.93
2019-03-09T02:00:35.663Z,76.93
2019-03-09T02:01:16.228Z,77.12
2019-03-09T02:01:56.812Z,77.22
2019-03-09T02:02:37.378Z,76.84
2019-03-09T02:03:17.962Z,77.22
2019-03-09T02:03:58.563Z,77.12
2019-03-09T02:04:39.073Z,77.12
2019-03-09T02:05:19.648Z,77.03
2019-03-09T02:06:00.223Z,77.31
2019-03-09T02:06:40.777Z,77.79
2019-03-09T02:07:22.131Z,77.89
2019-03-09T02:08:02.698Z,77.89
2019-03-09T02:08:43.271Z,77.7
2019-03-09T02:09:23.829Z,77.7
2019-03-09T02:10:04.388Z,77.6
2019-03-09T02:10:44.949Z,77.79
2019-03-09T02:11:25.491Z,77.79
2019-03-09T02:12:06.083Z,77.79
2019-03-09T02:12:46.688Z,77.6
2019-03-09T02:13:27.234Z,77.7
2019-03-09T02:14:07.799Z,77.7
2019-03-09T02:14:48.350Z,77.7
2019-03-09T02:15:28.918Z,77.89
2019-03-09T02:16:09.484Z,77.7
2019-03-09T02:16:50.077Z,77.89
2019-03-09T02:17:30.642Z,77.79
2019-03-09T02:18:11.278Z,77.7
2019-03-09T02:18:51.858Z,77.98
2019-03-09T02:19:32.427Z,77.7
2019-03-09T02:20:13.081Z,77.7
2019-03-09T02:20:53.614Z,77.6
2019-03-09T02:21:34.194Z,77.6
2019-03-09T02:22:14.764Z,77.6
2019-03-09T02:22:55.338Z,77.7
2019-03-09T02:23:35.939Z,77.41
2019-03-09T02:24:16.519Z,77.6
2019-03-09T02:24:57.088Z,77.6
2019-03-09T02:25:37.657Z,77.98
2019-03-09T02:26:18.211Z,78.08
2019-03-09T02:26:58.756Z,78.08
2019-03-09T02:27:39.315Z,77.98
2019-03-09T02:28:19.910Z,77.98
2019-03-09T02:29:01.147Z,78.17
2019-03-09T02:29:41.024Z,78.08
2019-03-09T02:30:21.602Z,78.08
2019-03-09T02:31:02.194Z,78.08
2019-03-09T02:31:42.758Z,77.89
2019-03-09T02:32:23.392Z,78.08
2019-03-09T02:33:03.958Z,78.08
2019-03-09T02:33:44.536Z,78.27
2019-03-09T02:34:25.122Z,77.89
2019-03-09T02:35:05.689Z,78.08
2019-03-09T02:35:46.259Z,77.98
2019-03-09T02:36:26.817Z,78.08
2019-03-09T02:37:07.389Z,77.98
2019-03-09T02:37:47.964Z,78.08
2019-03-09T02:38:28.548Z,78.08
2019-03-09T02:39:09.173Z,78.08
2019-03-09T02:39:49.755Z,77.79
2019-03-09T02:40:30.302Z,78.55
2019-03-09T02:41:10.855Z,78.55
2019-03-09T02:41:51.418Z,78.36
2019-03-09T02:42:32.007Z,78.64
2019-03-09T02:43:12.569Z,78.55
2019-03-09T02:43:53.135Z,78.55
2019-03-09T02:44:33.693Z,78.74
2019-03-09T02:45:14.254Z,78.64
2019-03-09T02:45:54.829Z,78.45
2019-03-09T02:46:35.402Z,78.64
2019-03-09T02:47:15.985Z,78.55
2019-03-09T02:47:56.551Z,78.36
2019-03-09T02:48:37.108Z,78.27
2019-03-09T02:49:17.675Z,78.36
2019-03-09T02:49:58.575Z,78.27
2019-03-09T02:50:38.802Z,78.36
2019-03-09T02:51:19.365Z,78.55
2019-03-09T02:51:59.959Z,78.36
2019-03-09T02:52:40.527Z,78.55
2019-03-09T02:53:21.106Z,78.27
2019-03-09T02:54:01.634Z,78.45
2019-03-09T02:54:42.181Z,78.55
2019-03-09T02:55:22.754Z,78.45
2019-03-09T02:56:03.316Z,78.55
2019-03-09T02:56:43.882Z,78.64
2019-03-09T02:57:24.448Z,78.55
2019-03-09T02:58:05.012Z,78.45
2019-03-09T02:58:45.583Z,78.45
2019-03-09T02:59:26.148Z,78.64
2019-03-09T03:00:06.710Z,78.55
2019-03-09T03:00:47.275Z,78.64
2019-03-09T03:01:27.836Z,78.45
2019-03-09T03:02:08.446Z,78.36
2019-03-09T03:02:48.998Z,78.45
2019-03-09T03:03:29.578Z,78.64
2019-03-09T03:04:10.140Z,78.55
2019-03-09T03:04:50.696Z,78.45
2019-03-09T03:05:31.297Z,78.45
2019-03-09T03:06:11.859Z,78.55
2019-03-09T03:06:52.420Z,78.27
2019-03-09T03:07:32.976Z,78.55
2019-03-09T03:08:13.548Z,78.55
2019-03-09T03:08:54.113Z,78.55
2019-03-09T03:09:34.673Z,78.36
2019-03-09T03:10:15.235Z,78.36
2019-03-09T03:10:55.880Z,78.55
2019-03-09T03:11:37.434Z,79.03
2019-03-09T03:12:16.994Z,78.74
2019-03-09T03:12:57.548Z,78.93
2019-03-09T03:13:38.112Z,79.12
2019-03-09T03:14:18.694Z,78.83
2019-03-09T03:14:59.259Z,79.03
2019-03-09T03:15:39.836Z,78.74
2019-03-09T03:16:20.399Z,79.03
2019-03-09T03:17:00.985Z,79.12
2019-03-09T03:17:41.517Z,79.03
2019-03-09T03:18:22.077Z,79.12
2019-03-09T03:19:02.654Z,78.93
2019-03-09T03:19:43.272Z,78.83
2019-03-09T03:20:23.838Z,78.93
2019-03-09T03:21:04.428Z,78.74
2019-03-09T03:21:45.464Z,78.74
2019-03-09T03:22:25.534Z,78.74
2019-03-09T03:23:06.097Z,78.74
2019-03-09T03:23:46.631Z,78.74
2019-03-09T03:24:27.230Z,78.83
2019-03-09T03:25:07.764Z,78.83
2019-03-09T03:25:48.333Z,78.74
2019-03-09T03:26:28.888Z,78.93
2019-03-09T03:27:09.521Z,78.83
2019-03-09T03:27:50.078Z,78.64
2019-03-09T03:28:30.630Z,78.55
2019-03-09T03:29:11.204Z,79.03
2019-03-09T03:29:51.779Z,79.03
2019-03-09T03:30:32.389Z,79.22
2019-03-09T03:31:12.914Z,79.22
2019-03-09T03:31:53.463Z,79.12
2019-03-09T03:32:34.029Z,78.74
2019-03-09T03:33:14.677Z,78.74
2019-03-09T03:33:55.192Z,78.83
2019-03-09T03:34:35.753Z,79.03
2019-03-09T03:35:16.322Z,79.31
2019-03-09T03:35:56.939Z,79.31
2019-03-09T03:36:37.506Z,79.41
2019-03-09T03:37:18.086Z,79.5
2019-03-09T03:37:58.644Z,79.22
2019-03-09T03:38:39.227Z,79.22
2019-03-09T03:39:19.803Z,79.22
2019-03-09T03:40:00.577Z,79.41
2019-03-09T03:40:40.934Z,79.41
2019-03-09T03:41:21.510Z,79.31
2019-03-09T03:42:02.078Z,79.31
2019-03-09T03:42:42.656Z,79.22
2019-03-09T03:43:23.226Z,79.22
2019-03-09T03:44:03.827Z,79.22
2019-03-09T03:44:44.403Z,79.22
2019-03-09T03:45:24.941Z,79.31
2019-03-09T03:46:05.504Z,79.41
2019-03-09T03:46:46.091Z,79.31
2019-03-09T03:47:26.649Z,79.31
2019-03-09T03:48:07.207Z,79.69
2019-03-09T03:48:47.761Z,79.5
2019-03-09T03:49:28.326Z,79.5
2019-03-09T03:50:08.907Z,79.69
2019-03-09T03:50:49.524Z,79.41
2019-03-09T03:51:30.084Z,79.31
2019-03-09T03:52:10.722Z,80.07
2019-03-09T03:52:51.253Z,79.69
2019-03-09T03:53:31.821Z,80.16
2019-03-09T03:54:12.384Z,79.97
2019-03-09T03:54:52.934Z,79.88
2019-03-09T03:55:33.507Z,79.97
2019-03-09T03:56:14.083Z,80.07
2019-03-09T03:56:54.642Z,79.97
2019-03-09T03:57:35.197Z,80.35
2019-03-09T03:58:15.774Z,80.74
2019-03-09T03:58:56.346Z,80.16
2019-03-09T03:59:36.937Z,80.93
2019-03-09T04:00:17.496Z,80.93
2019-03-09T04:00:58.083Z,80.64
2019-03-09T04:01:38.626Z,80.55
2019-03-09T04:02:19.206Z,80.93
2019-03-09T04:02:59.778Z,81.12
2019-03-09T04:03:40.352Z,81.21
2019-03-09T04:04:20.909Z,81.49
2019-03-09T04:05:01.490Z,81.4
2019-03-09T04:05:42.111Z,81.59
2019-03-09T04:06:22.650Z,81.21
2019-03-09T04:07:03.224Z,81.4
2019-03-09T04:07:44.209Z,81.68
2019-03-09T04:08:24.789Z,81.4
2019-03-09T04:09:05.347Z,81.49
2019-03-09T04:09:45.908Z,81.4
2019-03-09T04:10:26.479Z,81.59
2019-03-09T04:11:07.014Z,81.68
2019-03-09T04:11:47.589Z,81.59
2019-03-09T04:12:28.158Z,81.4
2019-03-09T04:13:08.744Z,81.3
2019-03-09T04:13:49.315Z,81.59
2019-03-09T04:14:29.883Z,81.49
2019-03-09T04:15:10.456Z,81.3
2019-03-09T04:15:51.031Z,81.68
2019-03-09T04:16:31.606Z,81.68
2019-03-09T04:17:12.186Z,81.68
2019-03-09T04:17:52.742Z,81.59
2019-03-09T04:18:33.323Z,81.49
2019-03-09T04:19:13.869Z,81.59
2019-03-09T04:19:54.444Z,81.49
2019-03-09T04:20:35.010Z,81.3
2019-03-09T04:21:15.598Z,81.49
2019-03-09T04:21:56.174Z,81.3
2019-03-09T04:22:36.733Z,81.12
2019-03-09T04:23:17.275Z,81.02
2019-03-09T04:23:57.829Z,80.93
2019-03-09T04:24:38.408Z,81.02
2019-03-09T04:25:18.969Z,81.02
2019-03-09T04:25:59.563Z,81.12
2019-03-09T04:26:40.128Z,81.02
2019-03-09T04:27:20.725Z,80.93
2019-03-09T04:28:01.289Z,81.02
2019-03-09T04:28:41.895Z,81.12
2019-03-09T04:29:22.435Z,80.93
2019-03-09T04:30:02.988Z,80.83
2019-03-09T04:30:43.558Z,80.74
2019-03-09T04:31:24.128Z,81.12
2019-03-09T04:32:04.709Z,81.12
2019-03-09T04:32:45.283Z,80.74
2019-03-09T04:33:25.854Z,80.83
2019-03-09T04:34:06.429Z,81.02
2019-03-09T04:34:46.992Z,80.74
2019-03-09T04:35:27.607Z,81.02
2019-03-09T04:36:08.215Z,81.02
2019-03-09T04:36:48.841Z,80.55
2019-03-09T04:37:29.418Z,80.16
2019-03-09T04:38:10.017Z,80.74
2019-03-09T04:38:50.574Z,80.26
2019-03-09T04:39:31.139Z,80.35
2019-03-09T04:40:11.732Z,80.35
2019-03-09T04:40:52.304Z,80.55
2019-03-09T04:41:32.862Z,80.35
2019-03-09T04:42:13.466Z,80.35
2019-03-09T04:42:54.076Z,80.55
2019-03-09T04:43:34.653Z,80.16
2019-03-09T04:44:15.225Z,80.35
2019-03-09T04:44:55.781Z,80.07
2019-03-09T04:45:36.355Z,80.07
2019-03-09T04:46:16.925Z,80.26
2019-03-09T04:46:57.480Z,79.5
2019-03-09T04:47:38.038Z,79.5
2019-03-09T04:48:18.671Z,79.5
2019-03-09T04:48:59.259Z,79.69
2019-03-09T04:49:39.813Z,79.6
2019-03-09T04:50:20.371Z,79.41
2019-03-09T04:51:00.936Z,79.79
2019-03-09T04:51:41.492Z,79.12
2019-03-09T04:52:22.071Z,79.5
2019-03-09T04:53:02.636Z,79.6
2019-03-09T04:53:43.180Z,79.6
2019-03-09T04:54:23.738Z,79.41
2019-03-09T04:55:04.340Z,79.5
2019-03-09T04:55:44.959Z,79.22
2019-03-09T04:56:25.545Z,79.6
2019-03-09T04:57:06.096Z,79.69
2019-03-09T04:57:46.655Z,79.31
2019-03-09T04:58:27.240Z,79.5
2019-03-09T04:59:07.834Z,79.5
2019-03-09T04:59:48.381Z,79.41
2019-03-09T05:00:28.964Z,79.5
2019-03-09T05:01:09.534Z,79.41
2019-03-09T05:01:50.092Z,79.22
2019-03-09T05:02:30.640Z,79.22
2019-03-09T05:03:11.231Z,79.6
2019-03-09T05:03:51.810Z,79.63
2019-03-09T05:04:32.435Z,79.69
2019-03-09T05:05:13.080Z,79.73
2019-03-09T05:05:53.601Z,79.54
2019-03-09T05:06:34.257Z,79.97
2019-03-09T05:07:14.801Z,80.02
2019-03-09T05:07:55.396Z,79.92
2019-03-09T05:08:36.011Z,80.4
2019-03-09T05:09:16.631Z,80.02
2019-03-09T05:09:57.215Z,80.07
2019-03-09T05:10:37.744Z,80.77
2019-03-09T05:11:18.324Z,81.16
2019-03-09T05:11:58.881Z,81.54
2019-03-09T05:12:39.461Z,81.82
2019-03-09T05:13:20.067Z,81.92
2019-03-09T05:14:00.628Z,82.07
2019-03-09T05:14:41.193Z,81.97
2019-03-09T05:15:21.778Z,82.26
2019-03-09T05:16:02.372Z,82.35
2019-03-09T05:16:42.963Z,82.35
2019-03-09T05:17:23.534Z,81.87
2019-03-09T05:18:04.123Z,82.07
2019-03-09T05:18:44.712Z,81.97
2019-03-09T05:19:25.341Z,81.68
2019-03-09T05:20:05.919Z,81.97
2019-03-09T05:20:46.483Z,81.97
2019-03-09T05:21:27.062Z,82.26
2019-03-09T05:22:07.641Z,82.54
2019-03-09T05:22:48.227Z,81.97
2019-03-09T05:23:28.791Z,82.16
2019-03-09T05:24:09.358Z,82.73
2019-03-09T05:24:49.923Z,82.07
2019-03-09T05:25:30.534Z,82.73
2019-03-09T05:26:11.136Z,81.97
2019-03-09T05:26:51.696Z,82.07
2019-03-09T05:27:32.264Z,82.64
2019-03-09T05:28:12.832Z,82.45
2019-03-09T05:28:53.415Z,82.54
2019-03-09T05:29:34.005Z,82.35
2019-03-09T05:30:14.595Z,82.35
2019-03-09T05:30:55.203Z,82.26
2019-03-09T05:31:35.766Z,82.35
2019-03-09T05:32:16.440Z,82.45
2019-03-09T05:32:56.995Z,82.26
2019-03-09T05:33:37.566Z,83.11
2019-03-09T05:34:18.127Z,83.11
2019-03-09T05:34:58.719Z,82.73
2019-03-09T05:35:39.307Z,82.92
2019-03-09T05:36:19.877Z,83.3
2019-03-09T05:37:00.431Z,83.11
2019-03-09T05:37:43.212Z,83.2
2019-03-09T05:38:21.558Z,83.11
2019-03-09T05:39:02.165Z,83.01
2019-03-09T05:39:42.729Z,83.01
2019-03-09T05:40:23.290Z,83.11
2019-03-09T05:41:03.867Z,82.16
2019-03-09T05:41:44.424Z,82.26
2019-03-09T05:42:24.993Z,82.73
2019-03-09T05:43:05.564Z,83.01
2019-03-09T05:43:46.149Z,83.3
2019-03-09T05:44:26.752Z,83.11
2019-03-09T05:45:07.351Z,83.3
2019-03-09T05:45:47.901Z,83.39
2019-03-09T05:46:28.479Z,82.92
2019-03-09T05:47:09.047Z,83.39
2019-03-09T05:47:49.603Z,83.3
2019-03-09T05:48:30.174Z,83.11
2019-03-09T05:49:10.739Z,83.39
2019-03-09T05:49:51.330Z,83.68
2019-03-09T05:50:31.889Z,83.97
2019-03-09T05:51:12.432Z,84.25
2019-03-09T05:51:52.992Z,84.44
2019-03-09T05:52:33.576Z,83.87
2019-03-09T05:53:14.148Z,83.97
2019-03-09T05:53:54.744Z,83.68
2019-03-09T05:54:35.296Z,84.53
2019-03-09T05:55:15.862Z,84.16
2019-03-09T05:55:56.463Z,85.11
2019-03-09T05:56:37.031Z,84.82
2019-03-09T05:57:17.596Z,85.2
2019-03-09T05:57:58.155Z,85.3
2019-03-09T05:58:38.707Z,85.86
2019-03-09T05:59:19.260Z,85.58
2019-03-09T05:59:59.798Z,85.68
2019-03-09T06:00:40.369Z,86.24
2019-03-09T06:01:20.939Z,86.53
2019-03-09T06:02:01.559Z,86.05
2019-03-09T06:02:42.124Z,86.72
2019-03-09T06:03:22.685Z,87.01
2019-03-09T06:04:03.280Z,86.82
2019-03-09T06:04:43.941Z,87.01
2019-03-09T06:05:24.510Z,87.48
2019-03-09T06:06:05.147Z,87.76
2019-03-09T06:06:45.633Z,87.76
2019-03-09T06:07:26.672Z,88.15
2019-03-09T06:08:07.265Z,88.62
2019-03-09T06:08:47.822Z,89.09
2019-03-09T06:09:28.386Z,89
2019-03-09T06:10:08.974Z,89.09
2019-03-09T06:10:49.529Z,89
2019-03-09T06:11:30.098Z,89.57
2019-03-09T06:12:10.682Z,89.19
2019-03-09T06:12:51.244Z,89.86
2019-03-09T06:13:31.831Z,89.76
2019-03-09T06:14:12.391Z,89.47
2019-03-09T06:14:52.939Z,90.05
2019-03-09T06:15:33.508Z,90.52
2019-03-09T06:16:14.084Z,90.23
2019-03-09T06:16:54.641Z,91.09
2019-03-09T06:17:35.248Z,91.19
2019-03-09T06:18:15.809Z,90.8
2019-03-09T06:18:56.394Z,90.99
2019-03-09T06:19:36.995Z,90.9
2019-03-09T06:20:17.552Z,90.99
2019-03-09T06:20:58.130Z,91.19
2019-03-09T06:21:38.693Z,91.38
2019-03-09T06:22:19.254Z,91.85
2019-03-09T06:22:59.852Z,92.13
2019-03-09T06:23:40.420Z,91.85
2019-03-09T06:24:20.985Z,91.71
2019-03-09T06:25:01.572Z,92.04
2019-03-09T06:25:42.161Z,92.18
2019-03-09T06:26:22.730Z,92.9
2019-03-09T06:27:03.282Z,92.42
2019-03-09T06:27:43.870Z,92.56
2019-03-09T06:28:24.413Z,92.8
2019-03-09T06:29:04.991Z,92.18
2019-03-09T06:29:45.558Z,92.51
2019-03-09T06:30:26.122Z,92.51
2019-03-09T06:31:06.668Z,92.61
2019-03-09T06:31:47.231Z,92.42
2019-03-09T06:32:27.777Z,92.8
2019-03-09T06:33:08.353Z,93.27
2019-03-09T06:33:48.929Z,93.23
2019-03-09T06:34:29.521Z,93.32
2019-03-09T06:35:10.065Z,93.46
2019-03-09T06:35:50.662Z,93.56
2019-03-09T06:36:31.216Z,93.84
2019-03-09T06:37:11.769Z,93.8
2019-03-09T06:37:52.362Z,94.51
2019-03-09T06:38:32.921Z,93.56
2019-03-09T06:39:13.482Z,94.18
2019-03-09T06:39:54.124Z,94.27
2019-03-09T06:40:35.236Z,93.99
2019-03-09T06:41:15.875Z,93.84
2019-03-09T06:41:56.459Z,94.27
2019-03-09T06:42:37.060Z,94.37
2019-03-09T06:43:17.615Z,94.7
2019-03-09T06:43:58.321Z,94.74
2019-03-09T06:44:39.068Z,94.37
2019-03-09T06:45:19.659Z,94.13
2019-03-09T06:46:00.254Z,94.27
2019-03-09T06:46:40.831Z,94.37
2019-03-09T06:47:21.402Z,93.7
2019-03-09T06:48:02.017Z,94.46
2019-03-09T06:48:42.600Z,93.51
2019-03-09T06:49:23.168Z,93.6
2019-03-09T06:50:03.729Z,93.7
2019-03-09T06:50:44.301Z,94.74
2019-03-09T06:51:24.866Z,94.56
2019-03-09T06:52:05.461Z,94.65
2019-03-09T06:52:46.029Z,95.03
2019-03-09T06:53:26.583Z,94.84
2019-03-09T06:54:07.147Z,95.31
2019-03-09T06:54:47.744Z,95.12
2019-03-09T06:55:28.341Z,95.12
2019-03-09T06:56:08.895Z,95.12
2019-03-09T06:56:49.477Z,95.41
2019-03-09T06:57:30.030Z,95.41
2019-03-09T06:58:10.609Z,95.51
2019-03-09T06:58:51.189Z,95.22
2019-03-09T06:59:31.780Z,95.22
2019-03-09T07:00:12.358Z,95.22
2019-03-09T07:00:52.940Z,95.22
2019-03-09T07:01:33.521Z,95.31
2019-03-09T07:02:14.089Z,95.31
2019-03-09T07:02:54.644Z,95.51
2019-03-09T07:03:35.249Z,95.51
2019-03-09T07:04:15.814Z,96.08
2019-03-09T07:04:56.403Z,95.89
2019-03-09T07:05:36.989Z,95.89
2019-03-09T07:06:17.540Z,96.08
2019-03-09T07:06:58.125Z,96.26
2019-03-09T07:07:38.674Z,96.08
2019-03-09T07:08:19.245Z,96.17
2019-03-09T07:08:59.799Z,96.26
2019-03-09T07:09:40.376Z,96.08
2019-03-09T07:10:21.021Z,96.83
2019-03-09T07:11:01.582Z,96.93
2019-03-09T07:11:42.157Z,96.93
2019-03-09T07:12:22.703Z,96.08
2019-03-09T07:13:03.298Z,95.98
2019-03-09T07:13:52.326Z,96.17
2019-03-09T07:14:24.419Z,96.17
2019-03-09T07:15:05.001Z,96.45
2019-03-09T07:15:45.573Z,96.64
2019-03-09T07:16:26.141Z,96.55
2019-03-09T07:17:06.698Z,96.64
2019-03-09T07:17:47.263Z,96.08
2019-03-09T07:18:27.826Z,96.36
2019-03-09T07:19:08.433Z,96.17
2019-03-09T07:19:48.980Z,96.36
2019-03-09T07:20:29.533Z,96.17
2019-03-09T07:21:10.113Z,95.7
2019-03-09T07:21:50.711Z,95.89
2019-03-09T07:22:31.301Z,95.98
2019-03-09T07:23:11.863Z,95.79
2019-03-09T07:23:53.786Z,96.17
2019-03-09T07:24:33.002Z,96.36
2019-03-09T07:25:13.565Z,96.93
2019-03-09T07:25:54.134Z,96.93
2019-03-09T07:26:34.724Z,96.55
2019-03-09T07:27:15.352Z,96.36
2019-03-09T07:27:55.955Z,96.64
2019-03-09T07:28:36.545Z,96.26
2019-03-09T07:29:17.091Z,96.74
2019-03-09T07:29:57.668Z,96.55
2019-03-09T07:30:38.286Z,96.74
2019-03-09T07:31:18.849Z,96.83
2019-03-09T07:31:59.420Z,96.45
2019-03-09T07:32:39.977Z,96.83
2019-03-09T07:33:20.559Z,96.26
2019-03-09T07:34:01.150Z,95.98
2019-03-09T07:34:41.694Z,96.26
2019-03-09T07:35:22.257Z,96.17
2019-03-09T07:36:02.828Z,96.17
2019-03-09T07:36:43.402Z,96.12
2019-03-09T07:37:23.970Z,96.17
2019-03-09T07:38:05.112Z,96.12
2019-03-09T07:38:45.660Z,96.12
2019-03-09T07:39:26.813Z,95.55
2019-03-09T07:40:07.376Z,95.36
2019-03-09T07:40:47.957Z,95.36
2019-03-09T07:41:28.537Z,95.75
2019-03-09T07:42:09.094Z,95.55
2019-03-09T07:42:49.659Z,96.22
2019-03-09T07:43:30.215Z,96.12
2019-03-09T07:44:10.801Z,96.03
2019-03-09T07:44:51.352Z,95.75
2019-03-09T07:45:32.006Z,95.94
2019-03-09T07:46:12.604Z,95.36
2019-03-09T07:46:53.162Z,95.46
2019-03-09T07:47:33.759Z,95.08
2019-03-09T07:48:14.341Z,95.08
2019-03-09T07:48:54.894Z,95.08
2019-03-09T07:49:35.465Z,95.08
2019-03-09T07:50:16.048Z,95.46
2019-03-09T07:50:56.763Z,95.17
2019-03-09T07:51:37.347Z,94.7
2019-03-09T07:52:17.979Z,94.32
2019-03-09T07:52:58.546Z,94.79
2019-03-09T07:53:39.108Z,94.79
2019-03-09T07:54:19.676Z,94.7
2019-03-09T07:55:00.365Z,94.7
2019-03-09T07:55:40.841Z,94.89
2019-03-09T07:56:21.371Z,93.84
2019-03-09T07:57:01.992Z,94.51
2019-03-09T07:57:42.595Z,93.84
2019-03-09T07:58:23.193Z,93.84
2019-03-09T07:59:04.309Z,93.75
2019-03-09T07:59:45.482Z,94.23
2019-03-09T08:00:26.792Z,93.08
2019-03-09T08:01:07.537Z,92.71
2019-03-09T08:01:48.120Z,93.08
2019-03-09T08:02:28.722Z,92.9
2019-03-09T08:03:09.313Z,93.56
2019-03-09T08:03:49.862Z,92.99
2019-03-09T08:04:30.480Z,93.56
2019-03-09T08:05:11.058Z,93.56
2019-03-09T08:05:51.628Z,92.8
2019-03-09T08:06:32.186Z,92.42
2019-03-09T08:07:14.750Z,92.9
2019-03-09T08:07:53.401Z,92.32
2019-03-09T08:08:33.970Z,92.71
2019-03-09T08:09:14.536Z,92.8
2019-03-09T08:09:55.085Z,92.9
2019-03-09T08:10:35.706Z,91.75
2019-03-09T08:11:16.454Z,92.04
2019-03-09T08:11:57.036Z,91.66
2019-03-09T08:12:37.617Z,92.13
2019-03-09T08:13:18.202Z,91.94
2019-03-09T08:13:58.776Z,91.85
2019-03-09T08:14:39.356Z,92.13
2019-03-09T08:15:19.915Z,91.85
2019-03-09T08:16:00.489Z,91.75
2019-03-09T08:16:41.054Z,92.13
2019-03-09T08:17:21.610Z,91.66
2019-03-09T08:18:02.171Z,91.66
2019-03-09T08:18:42.754Z,91.85
2019-03-09T08:19:23.308Z,92.13
2019-03-09T08:20:03.865Z,91.61
2019-03-09T08:20:44.427Z,91.52
2019-03-09T08:21:25.013Z,91.85
2019-03-09T08:22:05.572Z,91.61
2019-03-09T08:22:46.124Z,91.8
2019-03-09T08:23:26.751Z,91.85
2019-03-09T08:24:07.394Z,92.37
2019-03-09T08:24:47.957Z,92.08
2019-03-09T08:25:28.572Z,92.37
2019-03-09T08:26:09.146Z,91.13
2019-03-09T08:26:49.747Z,91.42
2019-03-09T08:27:30.353Z,90.66
2019-03-09T08:28:10.920Z,90.75
2019-03-09T08:28:51.495Z,90.75
2019-03-09T08:29:32.059Z,90.75
2019-03-09T08:30:12.827Z,90.85
2019-03-09T08:30:53.402Z,90.85
2019-03-09T08:31:33.990Z,90.94
2019-03-09T08:32:14.558Z,90.94
2019-03-09T08:32:55.145Z,90.75
2019-03-09T08:33:35.689Z,91.13
2019-03-09T08:34:16.285Z,91.13
2019-03-09T08:34:56.846Z,91.99
2019-03-09T08:35:37.472Z,91.71
2019-03-09T08:36:18.031Z,92.08
2019-03-09T08:36:58.616Z,91.99
2019-03-09T08:37:39.193Z,92.75
2019-03-09T08:38:19.776Z,92.56
2019-03-09T08:39:00.360Z,92.46
2019-03-09T08:39:40.915Z,92.85
2019-03-09T08:40:21.471Z,92.75
2019-03-09T08:41:02.057Z,92.56
2019-03-09T08:41:42.692Z,92.46
2019-03-09T08:42:23.291Z,92.94
2019-03-09T08:43:03.895Z,92.75
2019-03-09T08:43:44.463Z,92.85
2019-03-09T08:44:25.023Z,92.66
2019-03-09T08:45:05.606Z,92.37